Time;durP1;ratioP1;P1;durP2;ratioP2;P2;SDS_P1;SDS_P2;PMS_P1;PMS_P2;Temp;Humidity;BMP_temperature;BMP_pressure;BME280_temperature;BME280_humidity;BME280_pressure;Samples;Min_cycle;Max_cycle;Signal;HPM_P1;HPM_P2
2022/09/09 00:01:15;;;;;;;20.10;12.23;;;;;;;14.38;100.00;99934.66;5079463;28;20058;-75
2022/09/09 00:03:40;;;;;;;;;;;;;;;14.35;100.00;99937.81;5064846;28;20081;-75
2022/09/09 00:06:18;;;;;;;18.17;11.53;;;;;;;14.30;100.00;99938.63;5080243;28;20007;-75
2022/09/09 00:08:59;;;;;;;16.70;12.05;;;;;;;14.30;100.00;99933.66;5076004;28;20119;-75
2022/09/09 00:11:30;;;;;;;22.35;13.02;;;;;;;14.27;100.00;99940.47;5071663;28;20040;-75
2022/09/09 00:13:58;;;;;;;20.45;12.43;;;;;;;14.24;100.00;99941.50;5055896;28;20036;-75
2022/09/09 00:16:26;;;;;;;20.30;12.00;;;;;;;14.19;100.00;99936.56;5073876;28;20029;-75
2022/09/09 00:19:17;;;;;;;18.98;11.80;;;;;;;14.17;100.00;99938.41;5056742;28;20492;-74
2022/09/09 00:22:13;;;;;;;21.55;12.55;;;;;;;14.14;100.00;99943.09;5072586;28;20378;-75
2022/09/09 00:24:43;;;;;;;21.65;12.70;;;;;;;14.09;100.00;99943.13;5071998;28;20082;-75
2022/09/09 00:27:17;;;;;;;21.17;13.27;;;;;;;14.08;100.00;99950.97;5080427;28;20139;-76
2022/09/09 00:29:47;;;;;;;20.42;12.65;;;;;;;14.06;100.00;99941.31;5090931;28;20023;-75
2022/09/09 00:32:15;;;;;;;21.40;12.57;;;;;;;14.04;100.00;99943.91;5087884;28;20028;-76
2022/09/09 00:34:49;;;;;;;18.27;12.40;;;;;;;14.02;100.00;99944.47;5089699;28;20477;-77
2022/09/09 00:37:15;;;;;;;19.48;12.88;;;;;;;13.98;100.00;99930.34;5088758;28;20080;-77
2022/09/09 00:39:43;;;;;;;22.67;13.02;;;;;;;13.98;100.00;99932.47;5079349;28;20048;-76
2022/09/09 00:42:17;;;;;;;23.92;13.13;;;;;;;13.95;100.00;99930.63;5074586;28;20028;-75
2022/09/09 00:45:25;;;;;;;24.65;13.60;;;;;;;13.92;100.00;99931.69;5077819;28;20025;-77
2022/09/09 00:47:51;;;;;;;23.23;12.88;;;;;;;13.95;100.00;99944.97;5077722;28;20025;-75
2022/09/09 00:50:17;;;;;;;21.85;12.48;;;;;;;13.92;100.00;99937.44;5064926;28;20017;-75
2022/09/09 00:53:00;;;;;;;17.88;12.63;;;;;;;13.90;100.00;99937.16;5077928;28;20088;-75
2022/09/09 00:55:52;;;;;;;22.10;13.50;;;;;;;13.89;100.00;99938.47;5077736;28;20047;-75
2022/09/09 00:58:17;;;;;;;21.15;12.45;;;;;;;13.86;100.00;99937.44;5068938;28;20036;-74
2022/09/09 01:00:45;;;;;;;23.20;11.70;;;;;;;13.86;100.00;99946.06;5078662;28;20388;-74
2022/09/09 01:03:37;;;;;;;19.15;11.90;;;;;;;13.80;100.00;99938.75;5076544;28;20017;-76
2022/09/09 01:06:05;;;;;;;;;;;;;;;13.81;100.00;99940.31;5077168;28;20056;-75
2022/09/09 01:08:46;;;;;;;17.95;11.40;;;;;;;13.77;100.00;99943.47;5077655;28;19935;-76
2022/09/09 01:11:20;;;;;;;17.85;11.88;;;;;;;13.74;100.00;99941.63;5057272;28;20078;-76
2022/09/09 01:13:47;;;;;;;20.42;12.40;;;;;;;13.72;100.00;99935.63;5056459;28;20044;-76
2022/09/09 01:16:13;;;;;;;18.88;11.02;;;;;;;13.70;100.00;99943.97;5072875;28;20021;-74
2022/09/09 01:18:44;;;;;;;18.75;11.00;;;;;;;13.68;100.00;99945.81;5056447;28;20357;-75
2022/09/09 01:21:09;;;;;;;18.77;11.32;;;;;;;13.64;100.00;99948.19;5077808;28;20034;-75
2022/09/09 01:23:56;;;;;;;18.83;11.25;;;;;;;13.62;100.00;99950.78;5075426;28;20539;-77
2022/09/09 01:26:25;;;;;;;15.35;10.68;;;;;;;13.54;100.00;99950.53;5103716;28;20036;-76
2022/09/09 01:28:54;;;;;;;17.92;11.40;;;;;;;13.54;100.00;99950.53;5085326;28;20370;-76
2022/09/09 01:31:28;;;;;;;15.90;10.50;;;;;;;13.51;100.00;99960.97;5079381;28;20107;-76
2022/09/09 01:33:54;;;;;;;14.68;10.38;;;;;;;13.50;100.00;99953.63;5060030;28;20024;-76
2022/09/09 01:37:00;;;;;;;16.92;10.48;;;;;;;13.48;100.00;99964.84;5059409;28;20035;-74
2022/09/09 01:39:26;;;;;;;17.25;9.93;;;;;;;13.45;100.00;99965.09;5053277;28;20028;-76
2022/09/09 01:41:53;;;;;;;15.88;10.55;;;;;;;13.45;100.00;99967.97;5073844;28;20097;-76
2022/09/09 01:44:19;;;;;;;17.65;10.57;;;;;;;13.41;100.00;99964.56;5070935;28;20028;-77
2022/09/09 01:46:44;;;;;;;16.98;10.73;;;;;;;13.43;100.00;99970.59;5087801;28;20070;-76
2022/09/09 01:49:09;;;;;;;13.63;10.18;;;;;;;13.38;100.00;99968.50;5112056;28;20024;-76
2022/09/09 01:51:36;;;;;;;15.23;10.50;;;;;;;13.38;100.00;99977.09;5094980;28;20035;-76
2022/09/09 01:54:02;;;;;;;16.48;10.50;;;;;;;13.34;100.00;99968.72;5089214;28;20027;-75
2022/09/09 01:56:58;;;;;;;13.77;10.18;;;;;;;13.32;100.00;99971.34;5074191;28;20020;-75
2022/09/09 02:00:14;;;;;;;13.18;10.13;;;;;;;13.30;100.00;99967.44;5108069;28;20020;-74
2022/09/09 02:02:56;;;;;;;15.60;10.27;;;;;;;13.27;100.00;99972.13;5046434;28;20037;-76
2022/09/09 02:05:35;;;;;;;17.00;10.68;;;;;;;13.28;100.00;99976.56;5038960;28;20114;-75
2022/09/09 02:08:05;;;;;;;15.00;10.57;;;;;;;13.28;100.00;99985.19;5062873;28;20116;-75
2022/09/09 02:10:45;;;;;;;14.40;10.20;;;;;;;13.26;100.00;99984.91;5095447;28;20028;-74
2022/09/09 02:13:12;;;;;;;16.88;10.98;;;;;;;13.23;100.00;99988.81;5078146;28;20031;-75
2022/09/09 02:16:29;;;;;;;15.75;10.68;;;;;;;13.20;100.00;99991.94;5102493;28;20108;-76
2022/09/09 02:19:13;;;;;;;15.07;10.30;;;;;;;13.18;100.00;99986.72;5043775;28;20041;-74
2022/09/09 02:21:40;;;;;;;18.02;10.35;;;;;;;13.11;100.00;99984.34;5079504;28;20035;-75
2022/09/09 02:24:09;;;;;;;20.02;11.00;;;;;;;13.01;100.00;99980.94;5078873;28;20048;-75
2022/09/09 02:26:37;;;;;;;15.45;10.82;;;;;;;12.97;100.00;99993.97;5092313;28;20024;-76
2022/09/09 02:29:05;;;;;;;16.15;10.73;;;;;;;12.94;100.00;100003.63;5079602;28;20122;-75
2022/09/09 02:31:31;;;;;;;15.55;10.50;;;;;;;12.90;100.00;100000.22;5096484;28;20125;-77
2022/09/09 02:34:00;;;;;;;15.70;10.63;;;;;;;12.88;100.00;100008.56;5080548;28;20115;-76
2022/09/09 02:36:28;;;;;;;18.92;11.48;;;;;;;12.85;100.00;100006.72;5080501;28;20024;-76
2022/09/09 02:38:54;;;;;;;17.00;11.52;;;;;;;12.80;100.00;100008.25;5103573;28;20028;-76
2022/09/09 02:41:26;;;;;;;19.02;11.60;;;;;;;12.77;100.00;100011.38;5084672;28;20039;-75
2022/09/09 02:43:51;;;;;;;20.38;12.38;;;;;;;12.77;100.00;100009.28;5102401;28;20035;-76
2022/09/09 02:47:04;;;;;;;17.73;10.88;;;;;;;12.78;100.00;100010.88;5086018;28;20020;-75
2022/09/09 02:49:33;;;;;;;18.38;12.65;;;;;;;12.78;100.00;100013.72;5096128;28;20107;-75
2022/09/09 02:52:05;;;;;;;19.08;12.82;;;;;;;12.77;100.00;100009.28;5097524;28;20036;-75
2022/09/09 02:54:31;;;;;;;21.42;12.88;;;;;;;12.78;100.00;100012.94;5094257;28;20027;-75
2022/09/09 02:57:05;;;;;;;18.05;13.43;;;;;;;12.76;100.00;100007.72;5098057;28;20473;-75
2022/09/09 02:59:30;;;;;;;19.05;12.23;;;;;;;12.76;100.00;100010.59;5097787;28;20543;-76
2022/09/09 03:01:56;;;;;;;19.27;12.32;;;;;;;12.78;100.00;100012.94;5097770;28;20094;-75
2022/09/09 03:04:21;;;;;;;20.38;13.88;;;;;;;12.76;100.00;100010.59;5104730;28;20079;-75
2022/09/09 03:06:47;;;;;;;18.95;12.77;;;;;;;12.76;100.00;100010.59;5087838;28;20657;-74
2022/09/09 03:09:12;;;;;;;18.17;13.00;;;;;;;12.75;100.00;100014.75;5094850;28;20028;-75
2022/09/09 03:11:38;;;;;;;19.10;13.02;;;;;;;12.74;100.00;100012.41;5093557;28;20085;-75
2022/09/09 03:14:04;;;;;;;17.15;11.98;;;;;;;12.75;100.00;100023.34;5097016;28;20492;-75
2022/09/09 03:16:29;;;;;;;19.52;11.85;;;;;;;12.76;100.00;100027.78;5084879;28;20024;-76
2022/09/09 03:18:55;;;;;;;23.20;12.85;;;;;;;12.78;100.00;100024.41;5100858;28;20027;-76
2022/09/09 03:21:20;;;;;;;16.73;12.10;;;;;;;12.75;100.00;100019.72;5101303;28;20031;-77
2022/09/09 03:23:46;;;;;;;19.15;12.07;;;;;;;12.78;100.00;100024.41;5103783;28;20126;-77
2022/09/09 03:26:14;;;;;;;19.75;12.02;;;;;;;12.77;100.00;100029.38;5124079;28;20039;-75
2022/09/09 03:28:40;;;;;;;18.13;12.35;;;;;;;12.78;100.00;100019.47;5099833;28;20506;-76
2022/09/09 03:31:10;;;;;;;18.42;12.93;;;;;;;12.79;100.00;100021.03;5114510;28;20032;-75
2022/09/09 03:33:39;;;;;;;16.13;11.25;;;;;;;12.78;100.00;100012.94;5096293;28;20118;-75
2022/09/09 03:36:05;;;;;;;17.27;12.45;;;;;;;12.80;100.00;100025.47;5095921;28;20043;-76
2022/09/09 03:38:31;;;;;;;15.05;11.20;;;;;;;12.84;100.00;100028.09;5095562;28;20480;-74
2022/09/09 03:40:57;;;;;;;16.05;11.63;;;;;;;12.82;100.00;100031.47;5095497;28;20024;-75
2022/09/09 03:43:24;;;;;;;17.92;12.05;;;;;;;12.82;100.00;100027.81;5078951;28;20024;-75
2022/09/09 03:45:50;;;;;;;19.83;11.73;;;;;;;12.80;100.00;100036.94;5095783;28;20107;-75
2022/09/09 03:48:16;;;;;;;18.55;13.13;;;;;;;12.81;100.00;100029.91;5095576;28;20102;-75
2022/09/09 03:50:49;;;;;;;17.40;12.98;;;;;;;12.75;100.00;100026.22;5113922;28;20023;-75
2022/09/09 03:53:16;;;;;;;19.25;12.77;;;;;;;12.80;100.00;100039.03;5113699;28;20028;-76
2022/09/09 03:55:49;;;;;;;16.67;11.55;;;;;;;12.78;100.00;100035.88;5095426;28;20115;-76
2022/09/09 03:58:15;;;;;;;22.90;12.88;;;;;;;12.73;100.00;100036.66;5113526;28;20466;-76
2022/09/09 04:00:42;;;;;;;17.45;12.40;;;;;;;12.76;100.00;100041.34;5078375;28;20031;-75
2022/09/09 04:03:11;;;;;;;17.13;11.88;;;;;;;12.74;100.00;100041.09;5095225;28;20106;-74
2022/09/09 04:05:39;;;;;;;17.27;12.75;;;;;;;12.69;100.00;100036.91;5113655;28;20023;-77
2022/09/09 04:08:06;;;;;;;20.05;12.95;;;;;;;12.70;100.00;100049.94;5115128;28;20031;-75
2022/09/09 04:10:32;;;;;;;17.48;13.05;;;;;;;12.68;100.00;100049.66;5098299;28;20028;-76
2022/09/09 04:12:57;;;;;;;17.73;12.02;;;;;;;12.67;100.00;100045.22;5104712;28;20486;-76
2022/09/09 04:15:22;;;;;;;17.58;11.95;;;;;;;12.67;100.00;100048.09;5105084;28;20026;-76
2022/09/09 04:17:48;;;;;;;15.90;12.43;;;;;;;12.67;100.00;100053.81;5109769;28;20023;-75
2022/09/09 04:20:13;;;;;;;21.30;12.50;;;;;;;12.62;100.00;100041.03;5092653;28;20414;-75
2022/09/09 04:22:38;;;;;;;18.73;13.32;;;;;;;12.64;100.00;100055.66;5107734;28;20115;-74
2022/09/09 04:25:05;;;;;;;17.45;12.63;;;;;;;12.65;100.00;100053.56;5128885;28;20105;-75
2022/09/09 04:27:31;;;;;;;19.17;12.88;;;;;;;12.64;100.00;100054.84;5090818;28;20031;-75
2022/09/09 04:29:57;;;;;;;21.25;13.25;;;;;;;12.66;100.00;100061.63;5103423;28;20024;-75
2022/09/09 04:32:23;;;;;;;15.73;11.70;;;;;;;12.66;100.00;100058.75;5108038;28;20083;-75
2022/09/09 04:34:48;;;;;;;17.05;11.48;;;;;;;12.67;100.00;100056.69;5091295;28;20039;-75
2022/09/09 04:37:13;;;;;;;16.90;11.52;;;;;;;12.70;100.00;100055.69;5118923;28;20482;-74
2022/09/09 04:39:39;;;;;;;23.20;12.30;;;;;;;12.67;100.00;100048.09;5118011;28;20182;-74
2022/09/09 04:42:04;;;;;;;18.88;12.35;;;;;;;12.69;100.00;100063.50;5100639;28;20030;-75
2022/09/09 04:44:30;;;;;;;17.73;11.40;;;;;;;12.65;100.00;100062.94;5117245;28;20023;-75
2022/09/09 04:46:55;;;;;;;17.52;12.90;;;;;;;12.62;100.00;100054.56;5117270;28;20035;-74
2022/09/09 04:49:23;;;;;;;17.05;11.75;;;;;;;12.62;100.00;100063.97;5099674;28;20072;-75
2022/09/09 04:51:52;;;;;;;18.05;13.57;;;;;;;12.60;100.00;100062.91;5098925;28;20480;-76
2022/09/09 04:54:18;;;;;;;22.63;13.20;;;;;;;12.60;100.00;100060.06;5098122;28;20059;-75
2022/09/09 04:56:45;;;;;;;17.00;12.07;;;;;;;12.58;100.00;100063.44;5098540;28;20034;-76
2022/09/09 04:59:11;;;;;;;16.10;12.02;;;;;;;12.65;100.00;100065.78;5098829;28;20059;-77
2022/09/09 05:01:38;;;;;;;16.48;11.27;;;;;;;12.70;100.00;100064.28;5098426;28;20110;-77
2022/09/09 05:04:04;;;;;;;17.83;12.02;;;;;;;12.69;100.00;100065.56;5116563;28;20019;-76
2022/09/09 05:06:32;;;;;;;17.95;11.50;;;;;;;12.76;100.00;100072.88;5116379;28;20032;-76
2022/09/09 05:09:00;;;;;;;16.45;10.98;;;;;;;12.81;100.00;100069.25;5098051;28;20031;-77
2022/09/09 05:11:29;;;;;;;16.90;10.57;;;;;;;12.84;100.00;100077.63;5116319;28;20488;-76
2022/09/09 05:13:56;;;;;;;14.95;11.13;;;;;;;12.91;100.00;100079.22;5098068;28;20470;-78
2022/09/09 05:16:24;;;;;;;12.23;10.32;;;;;;;12.94;100.00;100084.72;5064080;28;20119;-76
2022/09/09 05:18:54;;;;;;;26.65;12.48;;;;;;;13.01;100.00;100077.69;5098091;28;20119;-78
2022/09/09 05:21:22;;;;;;;22.85;11.73;;;;;;;13.07;100.00;100078.50;5098632;28;20027;-77
2022/09/09 05:23:50;;;;;;;59.42;16.02;;;;;;;13.14;100.00;100083.75;5081202;28;20111;-77
2022/09/09 05:26:19;;;;;;;39.78;14.90;;;;;;;13.17;100.00;100073.31;5115590;28;20016;-76
2022/09/09 05:28:53;;;;;;;22.23;10.45;;;;;;;13.29;100.00;100090.06;5097114;28;20035;-76
2022/09/09 05:31:19;;;;;;;19.90;10.95;;;;;;;13.36;100.00;100092.41;5093643;28;20035;-77
2022/09/09 05:33:47;;;;;;;16.20;10.15;;;;;;;13.42;100.00;100096.09;5115103;28;20063;-77
2022/09/09 05:36:19;;;;;;;14.27;9.50;;;;;;;13.48;100.00;100091.16;5081236;28;20028;-77
2022/09/09 05:38:45;;;;;;;11.80;9.30;;;;;;;13.58;100.00;100093.81;5097747;28;20032;-77
2022/09/09 05:41:11;;;;;;;11.00;8.70;;;;;;;13.58;100.00;100105.31;5097536;28;20039;-76
2022/09/09 05:43:38;;;;;;;11.20;9.63;;;;;;;13.57;100.00;100101.63;5115244;28;20024;-76
2022/09/09 05:46:08;;;;;;;10.73;8.48;;;;;;;13.60;100.00;100097.72;5079827;28;20020;-76
2022/09/09 05:48:35;;;;;;;11.45;8.55;;;;;;;13.69;100.00;100113.94;5114114;28;20020;-77
2022/09/09 05:51:02;;;;;;;10.02;8.00;;;;;;;13.77;100.00;100104.28;5094902;28;20494;-77
2022/09/09 05:53:28;;;;;;;12.85;7.78;;;;;;;13.83;100.00;100098.56;5113177;28;20038;-75
2022/09/09 05:56:03;;;;;;;21.90;9.20;;;;;;;13.90;100.00;100100.91;5094901;28;20024;-76
2022/09/09 05:58:31;;;;;;;17.75;9.02;;;;;;;14.03;100.00;100103.28;5078283;28;20046;-77
2022/09/09 06:01:10;;;;;;;37.47;11.25;;;;;;;14.12;100.00;100106.66;5113408;28;20020;-75
2022/09/09 06:03:39;;;;;;;41.28;12.55;;;;;;;14.20;100.00;100110.56;5114133;28;20034;-77
2022/09/09 06:06:10;;;;;;;69.35;15.20;;;;;;;14.31;100.00;100116.31;5079967;28;20061;-77
2022/09/09 06:08:38;;;;;;;52.65;12.55;;;;;;;14.42;100.00;100116.31;5115360;28;20464;-76
2022/09/09 06:11:10;;;;;;;17.45;7.50;;;;;;;14.52;100.00;100122.56;5096682;28;20124;-77
2022/09/09 06:13:38;;;;;;;34.72;8.98;;;;;;;14.72;100.00;100107.13;5080098;28;20020;-76
2022/09/09 06:16:06;;;;;;;17.27;7.20;;;;;;;16.62;100.00;100095.22;5080078;28;20096;-76
2022/09/09 06:18:32;;;;;;;15.43;3.90;;;;;;;20.14;100.00;100100.97;5114891;28;20031;-76
2022/09/09 06:21:00;;;;;;;8.82;4.60;;;;;;;23.52;100.00;100117.03;5115138;28;20026;-77
2022/09/09 06:23:26;;;;;;;14.25;4.55;;;;;;;26.47;100.00;100132.47;5114814;28;20034;-77
2022/09/09 06:26:05;;;;;;;24.63;4.85;;;;;;;28.83;79.68;100129.25;5092990;28;20046;-76
2022/09/09 06:28:31;;;;;;;20.40;4.68;;;;;;;30.58;63.98;100122.03;5093326;28;20024;-76
2022/09/09 06:30:58;;;;;;;6.80;3.20;;;;;;;32.14;57.37;100122.75;5092601;28;20354;-77
2022/09/09 06:33:24;;;;;;;7.63;2.78;;;;;;;33.20;49.48;100135.38;5094238;28;20037;-84
2022/09/09 06:35:53;;;;;;;4.88;2.38;;;;;;;34.24;42.66;100139.31;5081061;28;20020;-85
2022/09/09 06:38:18;;;;;;;5.50;2.50;;;;;;;35.07;42.98;100144.09;5092043;28;20020;-84
2022/09/09 06:40:55;;;;;;;3.70;2.13;;;;;;;35.89;38.68;100146.25;5092958;28;20020;-84
2022/09/09 06:43:21;;;;;;;3.58;1.90;;;;;;;36.78;36.81;100152.19;5094148;28;20034;-80
2022/09/09 06:46:08;;;;;;;7.93;2.40;;;;;;;37.73;34.55;100152.75;5072772;28;20036;-82
2022/09/09 06:48:33;;;;;;;3.65;1.67;;;;;;;38.55;33.14;100148.09;5092286;28;20124;-84
2022/09/09 06:51:08;;;;;;;3.17;1.50;;;;;;;38.92;27.70;100155.97;5076172;28;20103;-83
2022/09/09 06:53:35;;;;;;;1.88;1.20;;;;;;;39.50;30.03;100148.00;5092754;28;20481;-82
2022/09/09 06:56:22;;;;;;;6.35;1.73;;;;;;;39.84;26.73;100160.16;5092560;28;20027;-86
2022/09/09 06:58:49;;;;;;;4.35;1.38;;;;;;;39.28;29.52;100160.09;5066612;28;20055;-84
2022/09/09 07:01:16;;;;;;;2.38;1.42;;;;;;;40.24;28.70;100154.44;5072422;28;20028;-85
2022/09/09 07:03:44;;;;;;;6.40;2.17;;;;;;;40.73;28.87;100155.69;5073076;28;20461;-82
2022/09/09 07:06:21;;;;;;;2.75;1.40;;;;;;;41.24;27.05;100155.31;5072432;28;20064;-84
2022/09/09 07:09:01;;;;;;;3.17;1.20;;;;;;;41.91;24.69;100164.88;5072588;28;20028;-77
2022/09/09 07:11:32;;;;;;;4.97;1.33;;;;;;;42.12;24.20;100155.47;5072792;28;20025;-78
2022/09/09 07:13:58;;;;;;;1.88;1.38;;;;;;;41.98;22.26;100160.50;5072395;28;20116;-78
2022/09/09 07:16:24;;;;;;;5.00;1.50;;;;;;;41.35;23.53;100165.28;5072041;28;20027;-77
2022/09/09 07:18:50;;;;;;;3.15;1.38;;;;;;;42.07;25.11;100147.13;5071903;28;20025;-77
2022/09/09 07:21:16;;;;;;;2.05;1.27;;;;;;;42.72;25.17;100157.97;5055067;28;20028;-77
2022/09/09 07:23:41;;;;;;;3.10;1.50;;;;;;;42.68;22.25;100157.91;5072566;28;20025;-82
2022/09/09 07:26:12;;;;;;;2.95;1.10;;;;;;;41.99;23.26;100150.00;5079660;28;20481;-84
2022/09/09 07:28:37;;;;;;;4.63;2.10;;;;;;;41.93;22.70;100153.66;5058070;28;20459;-78
2022/09/09 07:31:04;;;;;;;1.63;1.08;;;;;;;42.42;24.00;100151.47;5057488;28;20055;-78
2022/09/09 07:33:30;;;;;;;3.58;1.42;;;;;;;42.47;23.73;100141.03;5092356;28;20109;-76
2022/09/09 07:36:13;;;;;;;2.00;1.60;;;;;;;42.76;23.16;100148.25;5074548;28;20113;-81
2022/09/09 07:38:47;;;;;;;3.47;1.20;;;;;;;42.52;23.54;100151.63;5057812;28;20400;-85
2022/09/09 07:41:26;;;;;;;4.80;1.30;;;;;;;41.61;23.58;100162.06;5110519;28;20024;-80
2022/09/09 07:43:55;;;;;;;9.37;2.70;;;;;;;40.10;25.75;100166.06;5112579;28;20481;-78
2022/09/09 07:46:23;;;;;;;21.95;5.20;;;;;;;39.68;25.10;100166.47;5094334;28;20023;-78
2022/09/09 07:48:51;;;;;;;34.20;5.40;;;;;;;38.31;25.63;100180.19;5094309;28;20077;-71
2022/09/09 07:51:18;;;;;;;9.23;3.22;;;;;;;39.53;27.03;100160.81;5077178;28;20034;-71
2022/09/09 07:53:45;;;;;;;190.98;24.30;;;;;;;39.77;25.24;100176.44;5096758;28;20058;-71
2022/09/09 07:56:13;;;;;;;4.30;1.80;;;;;;;38.74;25.57;100167.41;5097783;28;20028;-72
2022/09/09 07:58:39;;;;;;;5.00;1.17;;;;;;;37.87;26.12;100171.19;5098234;28;20029;-72
2022/09/09 08:01:09;;;;;;;1.92;1.10;;;;;;;38.41;26.14;100169.31;5097999;28;20038;-75
2022/09/09 08:03:34;;;;;;;2.03;1.20;;;;;;;38.91;25.28;100158.22;5116400;28;20042;-74
2022/09/09 08:06:02;;;;;;;1.35;1.25;;;;;;;39.35;25.09;100164.00;5081087;28;20027;-76
2022/09/09 08:08:28;;;;;;;1.38;1.10;;;;;;;39.81;24.56;100161.56;5097854;28;20436;-74
2022/09/09 08:10:53;;;;;;;1.67;1.30;;;;;;;40.14;24.56;100163.94;5097776;28;20059;-76
2022/09/09 08:13:19;;;;;;;1.83;1.37;;;;;;;38.92;26.26;100156.75;5096604;28;20047;-78
2022/09/09 08:15:44;;;;;;;2.42;1.40;;;;;;;39.42;25.13;100162.72;5080701;28;20296;-76
2022/09/09 08:18:09;;;;;;;3.65;1.17;;;;;;;38.93;24.91;100161.28;5117224;28;20031;-79
2022/09/09 08:20:36;;;;;;;5.60;1.27;;;;;;;37.73;25.97;100158.72;5079054;28;20030;-83
2022/09/09 08:23:02;;;;;;;2.00;1.40;;;;;;;37.07;27.04;100145.13;5078766;28;20023;-82
2022/09/09 08:25:28;;;;;;;1.75;1.15;;;;;;;36.84;26.74;100150.19;5032303;28;1316519;-82
2022/09/09 08:27:53;;;;;;;1.80;1.38;;;;;;;36.41;27.92;100147.72;5080171;28;20031;-86
2022/09/09 08:30:19;;;;;;;2.50;1.10;;;;;;;36.08;28.83;100144.09;5096792;28;20028;-86
2022/09/09 08:32:44;;;;;;;1.40;0.90;;;;;;;35.92;29.16;100135.22;5115271;28;20026;-88
2022/09/09 08:35:09;;;;;;;2.53;1.30;;;;;;;35.07;28.77;100138.16;5096916;28;20460;-88
2022/09/09 08:37:35;;;;;;;2.50;1.48;;;;;;;34.38;29.24;100130.34;5114780;28;20110;-88
2022/09/09 08:40:02;;;;;;;1.17;0.98;;;;;;;33.24;31.75;100127.47;5096133;28;20472;-85
2022/09/09 08:42:34;;;;;;;3.13;1.38;;;;;;;33.32;31.70;100133.84;5080216;28;20457;-83
2022/09/09 08:45:29;;;;;;;26.55;5.07;;;;;;;33.78;32.30;100143.63;5098484;28;20027;-80
2022/09/09 08:48:03;;;;;;;4.78;1.50;;;;;;;32.80;33.41;100143.56;5087130;28;20031;-87
2022/09/09 08:50:32;;;;;;;4.95;2.25;;;;;;;32.31;34.92;100145.19;5088705;28;20031;-85
2022/09/09 08:53:17;;;;;;;231.95;29.80;;;;;;;32.04;35.17;100149.56;5100780;28;20080;-81
2022/09/09 08:55:48;;;;;;;18.85;3.40;;;;;;;31.85;33.63;100141.00;5097316;28;20123;-83
2022/09/09 08:58:17;;;;;;;9.30;2.28;;;;;;;31.30;35.57;100143.59;5112032;28;20059;-80
2022/09/09 09:01:16;;;;;;;1.35;1.05;;;;;;;31.28;36.05;100131.66;5078938;28;20028;-81
2022/09/09 09:04:01;;;;;;;7.50;1.83;;;;;;;31.47;34.79;100144.59;5109412;28;20047;-83
2022/09/09 09:06:37;;;;;;;15.95;2.65;;;;;;;31.92;34.32;100139.97;5096730;28;20036;-82
2022/09/09 09:09:21;;;;;;;10.52;1.63;;;;;;;32.10;33.17;100143.97;5104133;28;20036;-78
2022/09/09 09:11:55;;;;;;;29.40;3.55;;;;;;;31.27;36.05;100150.81;5096802;28;20047;-77
2022/09/09 09:14:23;;;;;;;51.42;6.80;;;;;;;31.81;32.07;100156.31;5080825;28;20046;-80
2022/09/09 09:17:00;;;;;;;104.10;16.25;;;;;;;31.46;32.91;100143.81;5115819;28;20055;-81
2022/09/09 09:19:28;;;;;;;64.05;7.93;;;;;;;31.49;32.87;100144.72;5080216;28;20106;-82
2022/09/09 09:22:15;;;;;;;1.90;1.27;;;;;;;31.70;32.84;100144.53;5079718;28;20096;-81
2022/09/09 09:24:42;;;;;;;5.35;1.35;;;;;;;31.55;34.46;100142.16;5097099;28;20051;-80
2022/09/09 09:27:16;;;;;;;89.50;12.90;;;;;;;31.40;35.79;100135.34;5079997;28;20055;-80
2022/09/09 09:29:43;;;;;;;22.23;4.53;;;;;;;31.43;33.55;100145.13;5080181;28;20097;-79
2022/09/09 09:32:13;;;;;;;13.75;3.13;;;;;;;31.21;33.90;100149.66;5079852;28;20036;-80
2022/09/09 09:34:38;;;;;;;20.55;3.50;;;;;;;30.09;35.26;100153.44;5097033;28;20353;-80
2022/09/09 09:37:12;;;;;;;3.92;1.33;;;;;;;29.68;36.42;100150.72;5096417;28;20084;-77
2022/09/09 09:39:39;;;;;;;2.35;1.10;;;;;;;29.35;36.65;100152.81;5096761;28;20102;-78
2022/09/09 09:42:13;;;;;;;7.57;1.88;;;;;;;28.90;38.57;100143.00;5079973;28;20032;-77
2022/09/09 09:44:39;;;;;;;2.13;1.77;;;;;;;28.68;39.15;100148.06;5097456;28;20016;-82
2022/09/09 09:47:17;;;;;;;20.25;3.05;;;;;;;28.55;40.52;100151.50;5097824;28;20024;-80
2022/09/09 09:49:59;;;;;;;121.57;20.23;;;;;;;28.38;42.47;100149.53;5080522;28;20061;-80
2022/09/09 09:52:29;;;;;;;3.08;1.20;;;;;;;28.16;40.47;100147.09;5114254;28;20043;-77
2022/09/09 09:54:56;;;;;;;6.00;2.00;;;;;;;28.05;42.52;100144.84;5079604;28;20020;-77
2022/09/09 09:57:30;;;;;;;6.30;1.75;;;;;;;27.77;45.13;100144.19;5096388;28;20045;-80
2022/09/09 10:00:18;;;;;;;104.80;15.27;;;;;;;27.84;45.46;100143.28;5096483;28;20016;-82
2022/09/09 10:02:46;;;;;;;3.97;1.30;;;;;;;27.10;49.68;100132.41;5079645;28;20032;-83
2022/09/09 10:05:31;;;;;;;2.33;1.17;;;;;;;27.17;47.26;100143.97;5096397;28;20023;-81
2022/09/09 10:08:13;;;;;;;50.40;7.10;;;;;;;27.38;49.63;100133.84;5095942;28;20036;-78
2022/09/09 10:11:16;;;;;;;4.68;2.08;;;;;;;27.62;51.38;100138.66;5114417;28;20027;-76
2022/09/09 10:14:06;;;;;;;30.85;4.35;;;;;;;28.10;46.57;100137.84;5094129;28;20534;-84
2022/09/09 10:16:31;;;;;;;22.73;3.95;;;;;;;28.05;46.80;100141.91;5075155;28;20069;-82
2022/09/09 10:19:06;;;;;;;7.83;2.73;;;;;;;27.90;47.49;100137.88;5094490;28;20036;-83
2022/09/09 10:21:44;;;;;;;44.20;5.82;;;;;;;27.89;43.84;100136.34;5058467;28;20357;-80
2022/09/09 10:24:35;;;;;;;14.63;2.38;;;;;;;28.05;43.93;100145.59;5075366;28;20126;-87
2022/09/09 10:27:16;;;;;;;2.45;0.93;;;;;;;28.24;40.49;100144.78;5059737;28;20494;-86
2022/09/09 10:30:08;;;;;;;2.42;1.08;;;;;;;28.24;41.18;100142.63;5085396;28;20050;-87
2022/09/09 10:33:05;;;;;;;71.13;10.82;;;;;;;28.24;44.83;100136.75;5113297;28;20480;-75
2022/09/09 10:35:51;;;;;;;1.85;1.27;;;;;;;28.19;44.57;100131.19;5113448;28;20020;-76
2022/09/09 10:38:36;;;;;;;11.45;2.42;;;;;;;28.15;40.78;100134.59;5096315;28;20114;-79
2022/09/09 10:41:13;;;;;;;63.30;8.05;;;;;;;27.92;42.25;100138.03;5078145;28;20513;-76
2022/09/09 10:44:02;;;;;;;7.22;1.63;;;;;;;27.56;42.11;100147.75;5075662;28;20027;-77
2022/09/09 10:47:06;;;;;;;15.82;2.63;;;;;;;27.09;47.66;100131.63;5093452;28;20027;-75
2022/09/09 10:50:00;;;;;;;9.18;2.17;;;;;;;26.61;52.78;100127.75;5055081;28;20125;-77
2022/09/09 10:53:10;;;;;;;1.88;0.98;;;;;;;26.39;46.96;100128.88;5057062;28;20438;-79
2022/09/09 10:55:40;;;;;;;4.57;1.80;;;;;;;26.10;50.72;100119.91;5048668;28;20061;-80
2022/09/09 10:58:07;;;;;;;28.15;5.45;;;;;;;25.90;48.43;100124.84;5075375;28;20032;-83
2022/09/09 11:00:42;;;;;;;88.50;13.35;;;;;;;25.70;48.81;100121.03;5094048;28;20054;-80
2022/09/09 11:03:19;;;;;;;3.67;1.20;;;;;;;25.74;49.23;100124.28;5075675;28;20058;-81
2022/09/09 11:05:57;;;;;;;2.50;1.20;;;;;;;25.72;52.63;100120.41;5058573;28;20035;-80
2022/09/09 11:08:29;;;;;;;18.17;3.30;;;;;;;25.60;52.43;100114.31;5075844;28;20089;-76
2022/09/09 11:11:20;;;;;;;131.43;22.35;;;;;;;25.57;54.00;100114.75;5093539;28;20061;-78
2022/09/09 11:13:51;;;;;;;124.20;15.73;;;;;;;25.41;59.38;100117.06;5058753;28;20031;-77
2022/09/09 11:16:36;;;;;;;;;;;;;;;25.36;56.14;100121.78;5093477;28;20028;-80
2022/09/09 11:19:17;;;;;;;1.65;1.13;;;;;;;25.13;50.98;100132.19;5093897;28;19912;-83
2022/09/09 11:21:49;;;;;;;75.97;12.40;;;;;;;24.95;51.30;100131.38;5077985;28;20024;-78
2022/09/09 11:24:31;;;;;;;10.88;2.42;;;;;;;24.74;51.24;100139.75;5074328;28;20036;-81
2022/09/09 11:27:26;;;;;;;21.65;3.42;;;;;;;24.49;53.50;100133.91;5093994;28;20098;-77
2022/09/09 11:30:06;;;;;;;23.50;3.58;;;;;;;24.43;55.97;100122.44;5076763;28;20047;-87
2022/09/09 11:32:39;;;;;;;55.13;7.53;;;;;;;24.54;58.70;100127.78;5076830;28;20510;-81
2022/09/09 11:35:22;;;;;;;2.83;1.15;;;;;;;24.60;54.44;100131.25;5093498;28;20020;-83